logo
Search for airport 
image banner adimage banner adimage banner ad
image banner ad

LSGK - Saanen

Located in Gstaad, Switzerland

ICAO - LSGK, IATA -

Data provided by Airmate  

General information

Coordinates: N46°29'12" E7°14'55"
Elevation is 3307 feet MSL.
Magnetic variation is 2.373° East
View others Airports in Berne

Operational data

Special qualification required
Current time UTC:
Current local time:
Weather at : LSGS - Sion ( 30 km )
METAR: LSGS 180350Z AUTO 09006KT CAVOK 15/12 Q1018
TAF: TAF LSGS 180225Z 1803/1812 09005KT CAVOK PROB40 1810/1812 25010KT
View NOTAMs / SUP AIP / TFR affecting this airport [VIEW]
Communications frequencies: [VIEW]

Runways:

RWY identifierQFULength (ft)Width (ft)SurfaceLDA (ft)
0879°4593131ASPH
26259°4593131ASPH

Airport contact information

Address: Gstaad Switzerland

Handlers

Gstaad Airport Ag

Gstaad Airport Ag

Other aviation service providers

Flight schools

Air Sarina Ag

Air Sarina Ag
info@air-sarina.ch+41337444025
+41799166215

Satellite view of LSGK